createdAt,value
2019-05-26T00:00:34.858Z,99.90
2019-05-26T00:03:05.117Z,99.90
2019-05-26T00:05:33.516Z,99.90
2019-05-26T00:08:03.513Z,99.90
2019-05-26T00:10:34.857Z,99.90
2019-05-26T00:13:12.086Z,99.90
2019-05-26T00:15:43.634Z,99.90
2019-05-26T00:18:17.994Z,99.90
2019-05-26T00:20:49.822Z,99.90
2019-05-26T00:23:21.158Z,99.90
2019-05-26T00:25:49.537Z,99.90
2019-05-26T00:28:17.942Z,99.90
2019-05-26T00:30:46.329Z,99.90
2019-05-26T00:33:16.361Z,99.90
2019-05-26T00:35:50.096Z,99.90
2019-05-26T00:38:21.464Z,99.90
2019-05-26T00:40:55.818Z,99.90
2019-05-26T00:43:25.242Z,99.90
2019-05-26T00:46:03.921Z,99.90
2019-05-26T00:48:32.552Z,99.90
2019-05-26T00:51:04.003Z,99.90
2019-05-26T00:53:36.689Z,99.90
2019-05-26T00:56:06.624Z,99.90
2019-05-26T00:58:35.021Z,99.90
2019-05-26T01:01:06.216Z,99.90
2019-05-26T01:03:37.594Z,99.90
2019-05-26T01:06:08.819Z,99.90
2019-05-26T01:08:37.213Z,99.90
2019-05-26T01:11:08.369Z,99.90
2019-05-26T01:13:41.114Z,99.90
2019-05-26T01:16:12.410Z,99.90
2019-05-26T01:18:43.994Z,99.90
2019-05-26T01:21:15.494Z,99.90
2019-05-26T01:23:43.923Z,99.90
2019-05-26T01:26:15.128Z,99.90
2019-05-26T01:28:43.515Z,99.90
2019-05-26T01:31:11.924Z,99.90
2019-05-26T01:33:43.032Z,99.90
2019-05-26T01:36:13.210Z,99.90
2019-05-26T01:38:41.997Z,99.90
2019-05-26T01:41:10.399Z,99.90
2019-05-26T01:43:38.779Z,99.90
2019-05-26T01:46:07.162Z,99.90
2019-05-26T01:48:40.071Z,99.90
2019-05-26T01:51:11.643Z,99.90
2019-05-26T01:53:40.297Z,99.90
2019-05-26T01:56:11.638Z,99.90
2019-05-26T01:58:40.730Z,99.90
2019-05-26T02:01:11.938Z,99.90
2019-05-26T02:03:40.626Z,99.90
2019-05-26T02:06:09.020Z,99.90
2019-05-26T02:08:40.241Z,99.90
2019-05-26T02:11:14.262Z,99.90
2019-05-26T02:13:48.014Z,99.90
2019-05-26T02:16:19.499Z,99.90
2019-05-26T02:18:48.910Z,99.90
2019-05-26T02:21:20.866Z,99.90
2019-05-26T02:23:58.261Z,99.90
2019-05-26T02:26:26.917Z,99.90
2019-05-26T02:29:00.758Z,99.90
2019-05-26T02:31:31.999Z,99.90
2019-05-26T02:34:03.062Z,99.90
2019-05-26T02:36:31.450Z,99.90
2019-05-26T02:39:02.960Z,99.90
2019-05-26T02:41:34.293Z,99.90
2019-05-26T02:44:04.746Z,99.90
2019-05-26T02:46:34.747Z,99.90
2019-05-26T02:49:08.559Z,99.90
2019-05-26T02:51:44.381Z,99.90
2019-05-26T02:54:13.278Z,99.90
2019-05-26T02:56:41.624Z,99.90
2019-05-26T02:59:11.645Z,99.90
2019-05-26T03:02:01.234Z,99.90
2019-05-26T03:04:15.603Z,99.90
2019-05-26T03:06:46.704Z,99.90
2019-05-26T03:09:23.268Z,99.90
2019-05-26T03:11:52.379Z,99.90
2019-05-26T03:14:23.883Z,99.90
2019-05-26T03:16:55.334Z,99.90
2019-05-26T03:19:26.809Z,99.90
2019-05-26T03:21:58.262Z,99.90
2019-05-26T03:24:31.366Z,99.90
2019-05-26T03:26:59.823Z,99.90
2019-05-26T03:29:29.846Z,99.90
2019-05-26T03:31:58.240Z,99.90
2019-05-26T03:34:27.688Z,99.90
2019-05-26T03:36:56.097Z,99.90
2019-05-26T03:39:43.640Z,99.90
2019-05-26T03:42:01.333Z,99.90
2019-05-26T03:44:31.486Z,99.90
2019-05-26T03:47:03.006Z,99.90
2019-05-26T03:49:34.936Z,99.90
2019-05-26T03:52:07.637Z,99.90
2019-05-26T03:54:38.808Z,99.90
2019-05-26T03:57:07.432Z,99.90
2019-05-26T03:59:38.533Z,99.90
2019-05-26T04:02:08.662Z,99.90
2019-05-26T04:04:40.028Z,99.90
2019-05-26T04:07:08.657Z,99.90
2019-05-26T04:09:37.045Z,99.90
2019-05-26T04:12:08.395Z,99.90
2019-05-26T04:14:38.482Z,99.90
2019-05-26T04:17:15.261Z,99.90
2019-05-26T04:19:46.478Z,99.90
2019-05-26T04:22:19.151Z,99.90
2019-05-26T04:24:49.410Z,99.90
2019-05-26T04:27:19.656Z,99.90
2019-05-26T04:29:49.593Z,99.90
2019-05-26T04:32:17.957Z,99.90
2019-05-26T04:34:49.482Z,99.90
2019-05-26T04:37:22.217Z,99.90
2019-05-26T04:39:50.614Z,99.90
2019-05-26T04:42:24.762Z,99.90
2019-05-26T04:45:06.093Z,99.90
2019-05-26T04:47:39.772Z,99.90
2019-05-26T04:50:13.281Z,99.90
2019-05-26T04:53:04.720Z,99.90
2019-05-26T04:55:18.427Z,99.90
2019-05-26T04:57:49.856Z,99.90
2019-05-26T05:00:21.588Z,99.90
2019-05-26T05:02:50.230Z,99.90
2019-05-26T05:05:21.269Z,99.90
2019-05-26T05:07:49.734Z,99.90
2019-05-26T05:10:22.864Z,99.90
2019-05-26T05:12:54.156Z,99.90
2019-05-26T05:15:22.855Z,99.90
2019-05-26T05:17:54.701Z,99.90
2019-05-26T05:20:25.778Z,99.90
2019-05-26T05:23:00.410Z,99.90
2019-05-26T05:25:28.750Z,99.90
2019-05-26T05:27:58.783Z,99.90
2019-05-26T05:30:27.185Z,99.90
2019-05-26T05:32:57.223Z,99.90
2019-05-26T05:35:28.296Z,99.90
2019-05-26T05:37:59.746Z,99.90
2019-05-26T05:40:28.149Z,99.90
2019-05-26T05:42:56.542Z,99.90
2019-05-26T05:45:27.890Z,99.90
2019-05-26T05:48:01.774Z,99.90
2019-05-26T05:50:30.177Z,99.90
2019-05-26T05:53:01.510Z,99.90
2019-05-26T05:55:29.914Z,99.90
2019-05-26T05:57:58.294Z,99.90
2019-05-26T06:00:30.062Z,99.90
2019-05-26T06:03:00.085Z,99.90
2019-05-26T06:05:28.469Z,99.90
2019-05-26T06:08:01.425Z,99.90
2019-05-26T06:10:30.045Z,99.90
2019-05-26T06:13:01.077Z,99.90
2019-05-26T06:15:38.530Z,99.90
2019-05-26T06:18:09.461Z,99.90
2019-05-26T06:20:37.873Z,99.90
2019-05-26T06:23:12.871Z,99.90
2019-05-26T06:25:46.186Z,99.90
2019-05-26T06:28:17.369Z,99.90
2019-05-26T06:30:51.033Z,99.90
2019-05-26T06:33:22.164Z,99.90
2019-05-26T06:35:53.347Z,99.90
2019-05-26T06:38:24.844Z,99.90
2019-05-26T06:40:56.134Z,99.90
2019-05-26T06:43:27.777Z,99.90
2019-05-26T06:45:56.170Z,99.90
2019-05-26T06:48:27.613Z,99.90
2019-05-26T06:50:56.298Z,99.90
2019-05-26T06:53:30.525Z,99.90
2019-05-26T06:55:58.940Z,99.90
2019-05-26T06:58:30.258Z,99.90
2019-05-26T07:01:01.157Z,99.90
2019-05-26T07:03:34.141Z,99.90
2019-05-26T07:06:05.215Z,99.90
2019-05-26T07:08:37.046Z,99.90
2019-05-26T07:11:14.294Z,99.90
2019-05-26T07:13:42.677Z,99.90
2019-05-26T07:16:13.466Z,99.90
2019-05-26T07:18:41.866Z,99.90
2019-05-26T07:21:13.110Z,99.90
2019-05-26T07:23:41.523Z,99.90
2019-05-26T07:26:12.882Z,99.90
2019-05-26T07:28:42.230Z,99.90
2019-05-26T07:31:13.558Z,99.90
2019-05-26T07:33:41.963Z,99.90
2019-05-26T07:36:13.156Z,99.90
2019-05-26T07:38:44.233Z,99.90
2019-05-26T07:41:16.863Z,99.90
2019-05-26T07:43:45.242Z,99.90
2019-05-26T07:46:16.660Z,99.90
2019-05-26T07:48:47.781Z,99.90
2019-05-26T07:51:19.350Z,99.90
2019-05-26T07:53:47.734Z,99.90
2019-05-26T07:56:21.857Z,99.90
2019-05-26T07:58:57.591Z,99.90
2019-05-26T08:01:35.203Z,99.90
2019-05-26T08:03:58.584Z,99.90
2019-05-26T08:06:26.982Z,99.90
2019-05-26T08:08:58.176Z,99.90
2019-05-26T08:11:29.465Z,99.90
2019-05-26T08:13:57.847Z,99.90
2019-05-26T08:16:31.838Z,99.90
2019-05-26T08:19:03.199Z,99.90
2019-05-26T08:21:36.162Z,99.90
2019-05-26T08:24:10.526Z,99.00
2019-05-26T08:26:38.945Z,99.90
2019-05-26T08:29:10.177Z,99.90
2019-05-26T08:31:44.413Z,99.80
2019-05-26T08:34:17.475Z,99.90
2019-05-26T08:36:48.842Z,99.90
2019-05-26T08:39:17.479Z,99.90
2019-05-26T08:41:48.701Z,99.90
2019-05-26T08:44:21.335Z,99.90
2019-05-26T08:46:57.989Z,99.90
2019-05-26T08:49:29.366Z,99.90
2019-05-26T08:52:01.554Z,99.90
2019-05-26T08:54:36.158Z,99.90
2019-05-26T08:57:11.647Z,99.90
2019-05-26T08:59:40.018Z,99.90
2019-05-26T09:02:11.382Z,99.90
2019-05-26T09:04:39.778Z,99.90
2019-05-26T09:07:11.137Z,99.90
2019-05-26T09:09:39.525Z,99.90
2019-05-26T09:12:09.560Z,98.90
2019-05-26T09:14:38.961Z,97.30
2019-05-26T09:17:10.320Z,97.10
2019-05-26T09:19:41.645Z,98.60
2019-05-26T09:22:10.050Z,98.80
2019-05-26T09:24:41.367Z,98.60
2019-05-26T09:27:12.802Z,97.80
2019-05-26T09:29:47.943Z,98.20
2019-05-26T09:32:16.356Z,99.20
2019-05-26T09:34:47.910Z,98.00
2019-05-26T09:37:17.066Z,97.30
2019-05-26T09:39:45.456Z,97.40
2019-05-26T09:42:18.567Z,98.50
2019-05-26T09:44:50.025Z,97.40
2019-05-26T09:47:18.410Z,97.00
2019-05-26T09:49:50.306Z,96.50
2019-05-26T09:52:21.681Z,96.70
2019-05-26T09:54:53.235Z,96.10
2019-05-26T09:57:21.621Z,96.70
2019-05-26T09:59:54.607Z,97.80
2019-05-26T10:02:23.005Z,96.90
2019-05-26T10:04:57.766Z,97.70
2019-05-26T10:07:29.054Z,96.30
2019-05-26T10:09:58.718Z,97.10
2019-05-26T10:12:29.993Z,96.20
2019-05-26T10:15:04.153Z,96.30
2019-05-26T10:17:35.509Z,96.10
2019-05-26T10:20:06.971Z,96.90
2019-05-26T10:22:35.373Z,97.80
2019-05-26T10:25:09.874Z,97.30
2019-05-26T10:27:39.809Z,95.00
2019-05-26T10:30:17.331Z,93.50
2019-05-26T10:32:45.729Z,95.30
2019-05-26T10:35:17.363Z,94.90
2019-05-26T10:37:45.742Z,94.20
2019-05-26T10:40:15.866Z,94.60
2019-05-26T10:42:45.502Z,92.60
2019-05-26T10:45:16.970Z,91.70
2019-05-26T10:47:48.618Z,91.20
2019-05-26T10:50:18.637Z,93.10
2019-05-26T10:52:49.913Z,93.30
2019-05-26T10:55:21.713Z,93.90
2019-05-26T10:57:52.219Z,94.00
2019-05-26T11:00:22.233Z,93.30
2019-05-26T11:02:50.863Z,93.10
2019-05-26T11:05:19.339Z,92.20
2019-05-26T11:07:50.870Z,91.10
2019-05-26T11:10:21.705Z,91.20
2019-05-26T11:12:51.236Z,92.00
2019-05-26T11:15:22.438Z,92.60
2019-05-26T11:17:53.970Z,92.80
2019-05-26T11:20:25.330Z,92.20
2019-05-26T11:22:53.966Z,93.10
2019-05-26T11:25:26.553Z,94.10
2019-05-26T11:27:54.959Z,94.10
2019-05-26T11:30:27.226Z,94.60
2019-05-26T11:32:59.422Z,94.60
2019-05-26T11:35:31.605Z,93.50
2019-05-26T11:38:00.064Z,93.40
2019-05-26T11:40:31.343Z,93.80
2019-05-26T11:43:15.434Z,93.50
2019-05-26T11:45:35.470Z,93.40
2019-05-26T11:48:07.281Z,93.50
2019-05-26T11:50:38.624Z,93.20
2019-05-26T11:53:08.649Z,94.20
2019-05-26T11:55:39.971Z,93.40
2019-05-26T11:58:15.961Z,93.20
2019-05-26T12:00:48.798Z,93.50
2019-05-26T12:03:18.828Z,94.00
2019-05-26T12:05:48.702Z,94.20
2019-05-26T12:08:17.114Z,91.60
2019-05-26T12:10:45.596Z,92.20
2019-05-26T12:13:17.577Z,92.10
2019-05-26T12:15:48.886Z,93.60
2019-05-26T12:18:19.271Z,93.20
2019-05-26T12:20:47.673Z,92.30
2019-05-26T12:23:16.063Z,94.10
2019-05-26T12:25:46.005Z,92.10
2019-05-26T12:28:14.385Z,92.20
2019-05-26T12:30:43.178Z,93.10
2019-05-26T12:33:17.448Z,92.40
2019-05-26T12:35:46.286Z,92.60
2019-05-26T12:38:17.081Z,91.90
2019-05-26T12:40:47.138Z,91.10
2019-05-26T12:43:15.537Z,91.30
2019-05-26T12:45:45.087Z,92.30
2019-05-26T12:48:13.510Z,92.50
2019-05-26T12:50:43.423Z,93.20
2019-05-26T12:53:13.354Z,93.00
2019-05-26T12:55:45.463Z,90.50
2019-05-26T12:58:16.648Z,91.10
2019-05-26T13:00:49.768Z,91.10
2019-05-26T13:03:18.217Z,91.90
2019-05-26T13:05:48.056Z,92.00
2019-05-26T13:08:18.619Z,90.90
2019-05-26T13:10:48.670Z,91.80
2019-05-26T13:13:19.781Z,91.40
2019-05-26T13:15:50.490Z,90.60
2019-05-26T13:18:22.714Z,89.90
2019-05-26T13:20:53.791Z,90.90
2019-05-26T13:23:24.944Z,91.40
2019-05-26T13:26:02.522Z,89.90
2019-05-26T13:28:34.311Z,90.00
2019-05-26T13:31:02.705Z,88.40
2019-05-26T13:33:34.242Z,90.20
2019-05-26T13:36:08.694Z,91.10
2019-05-26T13:38:37.398Z,88.50
2019-05-26T13:41:08.502Z,87.90
2019-05-26T13:43:36.894Z,84.10
2019-05-26T13:46:05.286Z,86.30
2019-05-26T13:48:37.256Z,86.70
2019-05-26T13:51:10.728Z,88.80
2019-05-26T13:53:42.335Z,88.10
2019-05-26T13:56:10.714Z,87.80
2019-05-26T14:01:05.602Z,87.70
2019-05-26T14:03:36.797Z,87.30
2019-05-26T14:06:08.263Z,86.40
2019-05-26T14:08:36.640Z,86.90
2019-05-26T14:11:06.677Z,88.90
2019-05-26T14:13:44.059Z,89.00
2019-05-26T14:16:16.885Z,87.10
2019-05-26T14:18:51.572Z,88.30
2019-05-26T14:21:19.977Z,87.80
2019-05-26T14:23:48.367Z,90.20
2019-05-26T14:26:16.766Z,91.00
2019-05-26T14:28:48.039Z,86.80
2019-05-26T14:31:18.337Z,84.40
2019-05-26T14:33:46.729Z,83.30
2019-05-26T14:36:15.128Z,81.60
2019-05-26T14:38:43.870Z,81.90
2019-05-26T14:41:15.278Z,85.60
2019-05-26T14:43:43.669Z,84.80
2019-05-26T14:46:12.068Z,83.90
2019-05-26T14:48:40.465Z,81.60
2019-05-26T14:51:14.261Z,82.50
2019-05-26T14:53:42.645Z,81.90
2019-05-26T14:56:17.184Z,82.70
2019-05-26T14:58:45.577Z,79.90
2019-05-26T15:01:18.332Z,78.30
2019-05-26T15:03:49.372Z,76.70
2019-05-26T15:06:17.754Z,79.50
2019-05-26T15:08:46.181Z,82.60
2019-05-26T15:11:17.781Z,81.90
2019-05-26T15:13:46.167Z,81.00
2019-05-26T15:16:14.549Z,82.50
2019-05-26T15:18:44.169Z,80.80
2019-05-26T15:21:18.950Z,80.40
2019-05-26T15:23:47.346Z,80.70
2019-05-26T15:26:18.861Z,78.80
2019-05-26T15:28:50.852Z,75.90
2019-05-26T15:31:19.236Z,75.20
2019-05-26T15:33:49.089Z,76.20
2019-05-26T15:36:19.352Z,74.70
2019-05-26T15:38:50.698Z,73.90
2019-05-26T15:41:19.095Z,74.70
2019-05-26T15:43:53.082Z,78.80
2019-05-26T15:46:25.313Z,78.60
2019-05-26T15:48:53.239Z,76.90
2019-05-26T15:51:23.264Z,76.90
2019-05-26T15:53:52.705Z,76.40
2019-05-26T15:56:23.716Z,76.40
2019-05-26T15:58:55.085Z,77.80
2019-05-26T16:01:25.338Z,76.60
2019-05-26T16:03:53.794Z,76.10
2019-05-26T16:06:22.415Z,75.10
2019-05-26T16:08:56.105Z,75.70
2019-05-26T16:11:33.086Z,75.80
2019-05-26T16:14:06.523Z,72.80
2019-05-26T16:16:41.695Z,74.60
2019-05-26T16:19:15.041Z,74.10
2019-05-26T16:21:48.868Z,74.10
2019-05-26T16:24:23.947Z,74.70
2019-05-26T16:27:00.527Z,75.10
2019-05-26T16:29:36.681Z,75.20
2019-05-26T16:32:19.082Z,75.40
2019-05-26T16:34:54.571Z,74.60
2019-05-26T16:37:30.092Z,75.90
2019-05-26T16:40:04.880Z,74.60
2019-05-26T16:42:37.325Z,76.50
2019-05-26T16:45:09.369Z,78.20
2019-05-26T16:47:41.395Z,78.40
2019-05-26T16:50:18.792Z,78.10
2019-05-26T16:52:54.651Z,80.10
2019-05-26T16:55:27.536Z,82.80
2019-05-26T16:57:59.831Z,85.00
2019-05-26T17:00:32.337Z,86.90
2019-05-26T17:03:07.880Z,86.80
2019-05-26T17:06:05.230Z,87.40
2019-05-26T17:08:32.966Z,88.60
2019-05-26T17:11:01.216Z,87.80
2019-05-26T17:13:33.680Z,88.30
2019-05-26T17:16:15.360Z,88.50
2019-05-26T17:18:47.501Z,88.90
2019-05-26T17:21:16.961Z,90.20
2019-05-26T17:23:48.141Z,90.40
2019-05-26T17:26:25.130Z,90.90
2019-05-26T17:29:00.025Z,91.50
2019-05-26T17:31:36.514Z,92.10
2019-05-26T17:34:06.453Z,93.10
2019-05-26T17:36:34.845Z,92.90
2019-05-26T17:39:12.770Z,93.10
2019-05-26T17:41:43.994Z,93.10
2019-05-26T17:44:14.020Z,93.00
2019-05-26T17:46:42.413Z,92.90
2019-05-26T17:49:13.781Z,93.30
2019-05-26T17:51:42.170Z,93.60
2019-05-26T17:54:12.155Z,93.90
2019-05-26T17:56:45.114Z,94.20
2019-05-26T17:59:13.507Z,94.60
2019-05-26T18:01:41.893Z,94.90
2019-05-26T18:04:13.362Z,95.20
2019-05-26T18:06:44.758Z,95.60
2019-05-26T18:09:16.109Z,96.00
2019-05-26T18:11:44.542Z,96.30
2019-05-26T18:14:13.067Z,96.60
2019-05-26T18:16:50.006Z,96.90
2019-05-26T18:19:18.554Z,97.50
2019-05-26T18:21:48.724Z,97.50
2019-05-26T18:24:19.607Z,98.10
2019-05-26T18:26:49.704Z,98.30
2019-05-26T18:29:21.459Z,98.60
2019-05-26T18:31:52.618Z,99.00
2019-05-26T18:34:23.762Z,99.00
2019-05-26T18:36:54.940Z,99.30
2019-05-26T18:39:23.570Z,99.50
2019-05-26T18:41:51.974Z,99.90
2019-05-26T18:44:23.320Z,99.90
2019-05-26T18:46:53.848Z,99.90
2019-05-26T18:49:25.143Z,99.90
2019-05-26T18:51:56.241Z,99.90
2019-05-26T18:54:24.658Z,99.90
2019-05-26T18:57:03.431Z,99.90
2019-05-26T18:59:33.437Z,99.90
2019-05-26T19:02:02.404Z,99.90
2019-05-26T19:04:36.537Z,99.90
2019-05-26T19:07:06.466Z,99.90
2019-05-26T19:09:34.858Z,99.90
2019-05-26T19:12:06.207Z,99.90
2019-05-26T19:14:38.246Z,99.90
2019-05-26T19:17:08.578Z,99.90
2019-05-26T19:19:39.718Z,99.90
2019-05-26T19:22:08.606Z,99.90
2019-05-26T19:24:37.009Z,99.90
2019-05-26T19:27:10.959Z,99.90
2019-05-26T19:29:39.498Z,99.90
2019-05-26T19:32:07.978Z,99.90
2019-05-26T19:34:40.756Z,99.90
2019-05-26T19:37:11.615Z,99.90
2019-05-26T19:39:48.765Z,99.90
2019-05-26T19:42:20.058Z,99.90
2019-05-26T19:44:48.446Z,99.90
2019-05-26T19:47:25.521Z,99.90
2019-05-26T19:49:55.550Z,99.90
2019-05-26T19:52:30.130Z,99.90
2019-05-26T19:54:58.537Z,99.90
2019-05-26T19:57:31.068Z,99.90
2019-05-26T20:00:01.980Z,99.90
2019-05-26T20:02:33.458Z,99.90
2019-05-26T20:05:09.237Z,99.90
2019-05-26T20:07:37.637Z,99.90
2019-05-26T20:10:10.818Z,99.90
2019-05-26T20:12:41.981Z,99.90
2019-05-26T20:15:16.145Z,99.90
2019-05-26T20:17:47.467Z,99.90
2019-05-26T20:20:18.087Z,99.90
2019-05-26T20:22:46.533Z,99.90
2019-05-26T20:25:16.782Z,99.90
2019-05-26T20:27:45.536Z,99.90
2019-05-26T20:30:21.135Z,99.90
2019-05-26T20:32:50.775Z,99.90
2019-05-26T20:35:20.809Z,99.90
2019-05-26T20:37:51.874Z,99.90
2019-05-26T20:40:22.669Z,99.90
2019-05-26T20:42:53.701Z,99.90
2019-05-26T20:45:24.749Z,99.90
2019-05-26T20:47:56.374Z,99.90
2019-05-26T20:50:30.166Z,99.90
2019-05-26T20:53:00.959Z,99.90
2019-05-26T20:55:36.557Z,99.90
2019-05-26T20:58:07.813Z,99.90
2019-05-26T21:00:36.189Z,99.90
2019-05-26T21:03:13.634Z,99.90
2019-05-26T21:05:42.257Z,99.90
2019-05-26T21:08:16.567Z,99.90
2019-05-26T21:10:53.931Z,99.90
2019-05-26T21:13:27.923Z,99.90
2019-05-26T21:16:02.393Z,99.90
2019-05-26T21:18:30.790Z,99.90
2019-05-26T21:20:59.173Z,99.90
2019-05-26T21:23:27.580Z,99.90
2019-05-26T21:25:57.609Z,99.90
2019-05-26T21:28:26.234Z,99.90
2019-05-26T21:30:54.635Z,99.90
2019-05-26T21:33:26.005Z,99.90
2019-05-26T21:35:57.414Z,99.90
2019-05-26T21:38:27.446Z,99.90
2019-05-26T21:41:02.492Z,99.90
2019-05-26T21:43:33.841Z,99.90
2019-05-26T21:46:02.237Z,99.90
2019-05-26T21:48:30.657Z,99.90
2019-05-26T21:51:03.594Z,99.90
2019-05-26T21:53:32.462Z,99.90
2019-05-26T21:56:08.145Z,99.90
2019-05-26T21:58:39.189Z,99.90
2019-05-26T22:01:10.232Z,99.90
2019-05-26T22:03:38.622Z,99.90
2019-05-26T22:06:07.157Z,99.90
2019-05-26T22:08:37.093Z,99.90
2019-05-26T22:11:08.140Z,99.90
2019-05-26T22:13:38.184Z,99.90
2019-05-26T22:16:09.173Z,99.90
2019-05-26T22:18:40.618Z,99.90
2019-05-26T22:21:12.955Z,99.90
2019-05-26T22:23:41.557Z,99.90
2019-05-26T22:26:15.561Z,99.90
2019-05-26T22:28:48.622Z,99.90
2019-05-26T22:31:22.466Z,99.90
2019-05-26T22:33:54.114Z,99.90
2019-05-26T22:36:28.185Z,99.90
2019-05-26T22:38:59.497Z,99.90
2019-05-26T22:41:40.018Z,99.90
2019-05-26T22:44:09.529Z,99.90
2019-05-26T22:46:43.248Z,99.90
2019-05-26T22:49:11.722Z,99.90
2019-05-26T22:51:43.839Z,99.90
2019-05-26T22:54:16.382Z,99.90
2019-05-26T22:56:44.744Z,99.90
2019-05-26T22:59:17.185Z,99.90
2019-05-26T23:01:45.590Z,99.90
2019-05-26T23:04:21.519Z,99.90
2019-05-26T23:06:50.813Z,99.90
2019-05-26T23:09:20.027Z,99.90
2019-05-26T23:11:49.971Z,99.90
2019-05-26T23:14:22.071Z,99.90
2019-05-26T23:16:53.918Z,99.90
2019-05-26T23:19:22.313Z,99.90
2019-05-26T23:21:55.826Z,99.90
2019-05-26T23:24:24.217Z,99.90
2019-05-26T23:26:55.113Z,99.90
2019-05-26T23:29:23.497Z,99.90
2019-05-26T23:32:00.937Z,99.90
2019-05-26T23:34:34.117Z,99.90
2019-05-26T23:37:02.563Z,99.90
2019-05-26T23:39:31.190Z,99.90
2019-05-26T23:42:06.325Z,99.90
2019-05-26T23:44:34.715Z,99.90
2019-05-26T23:47:09.220Z,99.90
2019-05-26T23:49:36.449Z,99.90
2019-05-26T23:52:09.394Z,99.90
2019-05-26T23:54:40.725Z,99.90
2019-05-26T23:57:16.745Z,99.90
2019-05-26T23:59:48.286Z,99.90
